createdAt,value
2022-10-11T00:02:14.923Z,72.0
2022-10-11T00:04:46.979Z,72.0
2022-10-11T00:07:17.561Z,72.0
2022-10-11T00:09:48.165Z,72.0
2022-10-11T00:14:58.923Z,72.0
2022-10-11T00:17:29.507Z,72.0
2022-10-11T00:20:00.112Z,72.0
2022-10-11T00:22:30.711Z,72.0
2022-10-11T00:25:01.314Z,72.0
2022-10-11T00:27:41.920Z,72.0
2022-10-11T00:30:12.502Z,72.0
2022-10-11T00:32:43.130Z,72.0
2022-10-11T00:35:13.719Z,72.0
2022-10-11T00:37:44.321Z,72.0
2022-10-11T00:40:14.913Z,72.0
2022-10-11T00:42:55.518Z,72.0
2022-10-11T00:45:26.129Z,72.0
2022-10-11T00:47:56.719Z,72.0
2022-10-11T00:50:27.317Z,72.0
2022-10-11T00:55:28.046Z,72.0
2022-10-11T00:58:08.650Z,71.0
2022-10-11T01:00:39.257Z,71.0
2022-10-11T01:03:09.848Z,71.0
2022-10-11T01:05:40.859Z,72.0
2022-10-11T01:08:11.439Z,72.0
2022-10-11T01:10:42.052Z,72.0
2022-10-11T01:13:22.647Z,71.0
2022-10-11T01:15:53.194Z,72.0
2022-10-11T01:18:24.300Z,72.0
2022-10-11T01:20:54.882Z,72.0
2022-10-11T01:23:25.488Z,72.0
2022-10-11T01:26:06.424Z,72.0
2022-10-11T01:28:37.303Z,72.0
2022-10-11T01:31:08.009Z,72.0
2022-10-11T01:36:08.899Z,72.0
2022-10-11T01:41:19.784Z,72.0
2022-10-11T01:43:50.366Z,72.0
2022-10-11T01:46:20.944Z,72.0
2022-10-11T01:48:51.550Z,72.0
2022-10-11T01:51:22.131Z,72.0
2022-10-11T01:53:52.717Z,72.0
2022-10-11T01:56:33.345Z,72.0
2022-10-11T01:59:03.964Z,72.0
2022-10-11T02:01:34.707Z,72.0
2022-10-11T02:04:05.555Z,72.0
2022-10-11T02:06:36.124Z,72.0
2022-10-11T02:09:08.028Z,72.0
2022-10-11T02:11:48.830Z,72.0
2022-10-11T02:16:49.570Z,72.0
2022-10-11T02:19:20.159Z,72.0
2022-10-11T02:21:50.759Z,72.0
2022-10-11T02:24:31.365Z,72.0
2022-10-11T02:27:01.951Z,72.0
2022-10-11T02:29:42.556Z,72.0
2022-10-11T02:32:13.132Z,72.0
2022-10-11T02:34:43.743Z,72.0
2022-10-11T02:37:14.375Z,72.0
2022-10-11T02:39:54.988Z,72.0
2022-10-11T02:42:25.569Z,72.0
2022-10-11T02:44:56.157Z,72.0
2022-10-11T02:47:26.780Z,72.0
2022-10-11T02:49:57.373Z,72.0
2022-10-11T02:52:27.951Z,72.0
2022-10-11T02:57:38.687Z,72.0
2022-10-11T03:00:09.280Z,72.0
2022-10-11T03:02:39.873Z,72.0
2022-10-11T03:05:10.483Z,72.0
2022-10-11T03:07:41.042Z,72.0
2022-10-11T03:10:21.682Z,72.0
2022-10-11T03:12:52.286Z,72.0
2022-10-11T03:15:22.905Z,72.0
2022-10-11T03:17:53.496Z,72.0
2022-10-11T03:20:24.105Z,72.0
2022-10-11T03:23:04.805Z,72.0
2022-10-11T03:25:35.416Z,72.0
2022-10-11T03:28:05.993Z,72.0
2022-10-11T03:30:36.679Z,73.0
2022-10-11T03:33:07.271Z,73.0
2022-10-11T03:38:22.930Z,72.0
2022-10-11T03:40:53.526Z,73.0
2022-10-11T03:43:24.106Z,73.0
2022-10-11T03:45:54.683Z,72.0
2022-10-11T03:48:25.632Z,73.0
2022-10-11T03:50:56.207Z,73.0
2022-10-11T03:53:36.811Z,73.0
2022-10-11T03:56:08.392Z,73.0
2022-10-11T03:58:39.190Z,73.0
2022-10-11T04:01:09.770Z,73.0
2022-10-11T04:03:40.474Z,73.0
2022-10-11T04:06:11.060Z,73.0
2022-10-11T04:11:21.786Z,73.0
2022-10-11T04:13:52.419Z,73.0
2022-10-11T04:18:53.154Z,73.0
2022-10-11T04:21:23.730Z,73.0
2022-10-11T04:24:04.342Z,73.0
2022-10-11T04:26:34.934Z,73.0
2022-10-11T04:29:05.837Z,73.0
2022-10-11T04:31:36.438Z,73.0
2022-10-11T04:34:07.063Z,73.0
2022-10-11T04:36:49.840Z,73.0
2022-10-11T04:39:20.617Z,73.0
2022-10-11T04:41:51.212Z,73.0
2022-10-11T04:44:21.814Z,73.0
2022-10-11T04:46:52.426Z,73.0
2022-10-11T04:49:23.032Z,73.0
2022-10-11T04:52:03.627Z,73.0
2022-10-11T04:54:34.215Z,73.0
2022-10-11T04:59:34.935Z,73.0
2022-10-11T05:02:00.507Z,73.0
2022-10-11T05:04:31.226Z,73.0
2022-10-11T05:07:11.828Z,73.0
2022-10-11T05:09:42.412Z,73.0
2022-10-11T05:12:12.990Z,73.0
2022-10-11T05:14:43.601Z,73.0
2022-10-11T05:17:24.176Z,73.0
2022-10-11T05:19:54.777Z,73.0
2022-10-11T05:22:35.392Z,73.0
2022-10-11T05:25:05.999Z,73.0
2022-10-11T05:27:36.638Z,73.0
2022-10-11T05:30:07.255Z,73.0
2022-10-11T05:32:38.433Z,73.0
2022-10-11T05:35:09.045Z,73.0
2022-10-11T05:40:19.776Z,73.0
2022-10-11T05:42:50.362Z,73.0
2022-10-11T05:45:20.934Z,73.0
2022-10-11T05:47:51.545Z,73.0
2022-10-11T05:50:24.242Z,73.0
2022-10-11T05:52:55.024Z,73.0
2022-10-11T05:55:35.611Z,73.0
2022-10-11T05:58:06.213Z,73.0
2022-10-11T06:00:36.824Z,73.0
2022-10-11T06:03:07.416Z,73.0
2022-10-11T06:05:47.999Z,73.0
2022-10-11T06:08:18.587Z,73.0
2022-10-11T06:10:49.178Z,73.0
2022-10-11T06:13:19.805Z,73.0
2022-10-11T06:15:50.379Z,73.0
2022-10-11T06:21:01.134Z,73.0
2022-10-11T06:23:31.744Z,73.0
2022-10-11T06:26:02.593Z,73.0
2022-10-11T06:28:33.608Z,73.0
2022-10-11T06:31:04.351Z,73.0
2022-10-11T06:33:34.959Z,73.0
2022-10-11T06:36:16.070Z,73.0
2022-10-11T06:38:51.176Z,73.0
2022-10-11T06:41:11.765Z,73.0
2022-10-11T06:43:42.352Z,73.0
2022-10-11T06:46:13.366Z,73.0
2022-10-11T06:48:53.988Z,73.0
2022-10-11T06:51:24.586Z,73.0
2022-10-11T06:53:55.162Z,73.0
2022-10-11T06:56:25.801Z,73.0
2022-10-11T07:01:26.819Z,73.0
2022-10-11T07:04:07.510Z,73.0
2022-10-11T07:06:38.092Z,73.0
2022-10-11T07:09:08.714Z,73.0
2022-10-11T07:11:39.290Z,73.0
2022-10-11T07:14:09.880Z,73.0
2022-10-11T07:16:40.466Z,73.0
2022-10-11T07:19:21.124Z,73.0
2022-10-11T07:22:01.719Z,73.0
2022-10-11T07:24:32.364Z,73.0
2022-10-11T07:27:02.965Z,73.0
2022-10-11T07:29:33.558Z,73.0
2022-10-11T07:32:04.142Z,73.0
2022-10-11T07:34:44.742Z,73.0
2022-10-11T07:37:15.383Z,73.0
2022-10-11T07:42:16.142Z,73.0
2022-10-11T07:44:46.758Z,73.0
2022-10-11T07:47:21.429Z,73.0
2022-10-11T07:49:52.016Z,73.0
2022-10-11T07:52:22.602Z,73.0
2022-10-11T07:54:53.188Z,73.0
2022-10-11T07:57:23.803Z,73.0
2022-10-11T08:00:00.188Z,73.0
2022-10-11T08:02:40.815Z,73.0
2022-10-11T08:05:11.435Z,73.0
2022-10-11T08:10:12.208Z,73.0
2022-10-11T08:12:42.881Z,73.0
2022-10-11T08:15:13.499Z,73.0
2022-10-11T08:17:54.096Z,73.0
2022-10-11T08:22:54.828Z,73.0
2022-10-11T08:25:25.457Z,73.0
2022-10-11T08:27:56.044Z,73.0
2022-10-11T08:30:26.671Z,73.0
2022-10-11T08:33:08.542Z,73.0
2022-10-11T08:35:39.329Z,73.0
2022-10-11T08:38:09.944Z,73.0
2022-10-11T08:40:45.133Z,73.0
2022-10-11T08:43:15.735Z,73.0
2022-10-11T08:45:46.344Z,73.0
2022-10-11T08:48:26.967Z,73.0
2022-10-11T08:50:57.573Z,73.0
2022-10-11T08:53:28.184Z,73.0
2022-10-11T08:55:58.805Z,73.0
2022-10-11T08:58:30.025Z,73.0
2022-10-11T09:03:40.741Z,73.0
2022-10-11T09:06:11.324Z,73.0
2022-10-11T09:08:41.940Z,73.0
2022-10-11T09:11:12.518Z,72.0
2022-10-11T09:13:43.119Z,72.0
2022-10-11T09:16:23.710Z,72.0
2022-10-11T09:18:54.312Z,72.0
2022-10-11T09:21:24.888Z,72.0
2022-10-11T09:23:55.493Z,72.0
2022-10-11T09:26:26.125Z,72.0
2022-10-11T09:29:00.847Z,72.0
2022-10-11T09:31:31.887Z,72.0
2022-10-11T09:34:02.504Z,71.0
2022-10-11T09:36:33.094Z,71.0
2022-10-11T09:39:16.958Z,71.0
2022-10-11T09:44:07.681Z,71.0
2022-10-11T09:46:48.271Z,70.0
2022-10-11T09:49:18.886Z,70.0
2022-10-11T09:51:49.474Z,70.0
2022-10-11T09:54:20.089Z,70.0
2022-10-11T09:56:50.669Z,70.0
2022-10-11T09:59:21.268Z,69.0
2022-10-11T10:02:01.954Z,69.0
2022-10-11T10:04:32.704Z,69.0
2022-10-11T10:07:03.285Z,69.0
2022-10-11T10:09:33.904Z,69.0
2022-10-11T10:12:04.504Z,69.0
2022-10-11T10:14:45.095Z,69.0
2022-10-11T10:17:15.691Z,69.0
2022-10-11T10:19:47.579Z,69.0
2022-10-11T10:24:48.289Z,68.0
2022-10-11T10:27:18.882Z,68.0
2022-10-11T10:29:59.527Z,68.0
2022-10-11T10:32:30.104Z,68.0
2022-10-11T10:35:04.283Z,68.0
2022-10-11T10:37:34.891Z,67.0
2022-10-11T10:40:05.488Z,67.0
2022-10-11T10:42:36.155Z,67.0
2022-10-11T10:45:22.326Z,67.0
2022-10-11T10:47:52.887Z,67.0
2022-10-11T10:50:23.510Z,66.0
2022-10-11T10:52:54.088Z,66.0
2022-10-11T10:55:24.705Z,66.0
2022-10-11T10:57:55.316Z,65.0
2022-10-11T11:00:35.986Z,65.0
2022-10-11T11:05:36.719Z,65.0
2022-10-11T11:08:07.274Z,65.0
2022-10-11T11:10:37.884Z,65.0
2022-10-11T11:13:08.472Z,65.0
2022-10-11T11:15:49.113Z,64.0
2022-10-11T11:18:19.696Z,64.0
2022-10-11T11:20:50.296Z,64.0
2022-10-11T11:23:20.895Z,64.0
2022-10-11T11:25:55.023Z,64.0
2022-10-11T11:28:35.972Z,65.0
2022-10-11T11:31:07.361Z,64.0
2022-10-11T11:33:38.180Z,64.0
2022-10-11T11:35:59.520Z,64.0
2022-10-11T11:38:30.189Z,64.0
2022-10-11T11:41:00.786Z,64.0
2022-10-11T11:46:21.586Z,64.0
2022-10-11T11:48:52.212Z,64.0
2022-10-11T11:51:23.941Z,64.0
2022-10-11T11:53:46.047Z,64.0
2022-10-11T11:56:16.617Z,64.0
2022-10-11T11:58:57.256Z,63.0
2022-10-11T12:01:31.293Z,63.0
2022-10-11T12:04:02.270Z,63.0
2022-10-11T12:06:32.886Z,63.0
2022-10-11T12:09:01.514Z,63.0
2022-10-11T12:11:35.320Z,63.0
2022-10-11T12:14:16.073Z,63.0
2022-10-11T12:16:46.662Z,63.0
2022-10-11T12:19:17.246Z,63.0
2022-10-11T12:21:47.827Z,63.0
2022-10-11T12:26:58.575Z,63.0
2022-10-11T12:29:29.427Z,63.0
2022-10-11T12:34:30.231Z,63.0
2022-10-11T12:37:04.500Z,63.0
2022-10-11T12:39:36.516Z,63.0
2022-10-11T12:42:17.115Z,63.0
2022-10-11T12:44:47.718Z,63.0
2022-10-11T12:47:18.315Z,63.0
2022-10-11T12:49:48.925Z,64.0
2022-10-11T12:52:19.491Z,64.0
2022-10-11T12:54:50.092Z,64.0
2022-10-11T12:57:30.686Z,63.0
2022-10-11T12:59:56.657Z,63.0
2022-10-11T13:02:28.643Z,63.0
2022-10-11T13:07:29.529Z,62.0
2022-10-11T13:10:10.133Z,62.0
2022-10-11T13:12:40.736Z,62.0
2022-10-11T13:15:11.361Z,62.0
2022-10-11T13:17:48.140Z,62.0
2022-10-11T13:20:18.815Z,62.0
2022-10-11T13:22:49.445Z,62.0
2022-10-11T13:25:30.077Z,62.0
2022-10-11T13:28:00.677Z,63.0
2022-10-11T13:30:31.316Z,63.0
2022-10-11T13:33:01.905Z,63.0
2022-10-11T13:35:35.027Z,63.0
2022-10-11T13:38:05.614Z,63.0
2022-10-11T13:40:50.117Z,63.0
2022-10-11T13:43:11.408Z,63.0
2022-10-11T13:48:12.179Z,63.0
2022-10-11T13:50:42.790Z,63.0
2022-10-11T13:53:13.393Z,63.0
2022-10-11T13:55:53.986Z,63.0
2022-10-11T13:58:28.942Z,62.0
2022-10-11T14:00:59.587Z,62.0
2022-10-11T14:03:30.335Z,62.0
2022-10-11T14:06:00.926Z,62.0
2022-10-11T14:08:41.570Z,62.0
2022-10-11T14:11:16.763Z,62.0
2022-10-11T14:13:37.333Z,62.0
2022-10-11T14:16:08.155Z,62.0
2022-10-11T14:18:38.938Z,62.0
2022-10-11T14:21:09.530Z,63.0
2022-10-11T14:23:50.139Z,63.0
2022-10-11T14:28:51.005Z,63.0
2022-10-11T14:31:21.615Z,63.0
2022-10-11T14:34:02.217Z,63.0
2022-10-11T14:36:32.808Z,63.0
2022-10-11T14:39:13.437Z,63.0
2022-10-11T14:41:44.011Z,63.0
2022-10-11T14:44:14.622Z,63.0
2022-10-11T14:46:45.195Z,63.0
2022-10-11T14:49:15.816Z,63.0
2022-10-11T14:51:46.406Z,63.0
2022-10-11T14:54:27.003Z,63.0
2022-10-11T14:56:57.564Z,63.0
2022-10-11T14:59:28.142Z,63.0
2022-10-11T15:01:58.903Z,63.0
2022-10-11T15:04:29.519Z,63.0
2022-10-11T15:09:40.271Z,63.0
2022-10-11T15:12:10.871Z,64.0
2022-10-11T15:14:41.486Z,64.0
2022-10-11T15:17:12.086Z,64.0
2022-10-11T15:19:42.680Z,64.0
2022-10-11T15:22:23.280Z,64.0
2022-10-11T15:24:58.286Z,64.0
2022-10-11T15:27:18.938Z,64.0
2022-10-11T15:29:49.528Z,64.0
2022-10-11T15:35:00.291Z,64.0
2022-10-11T15:37:47.238Z,64.0
2022-10-11T15:40:07.917Z,64.0
2022-10-11T15:42:38.502Z,64.0
2022-10-11T15:45:09.104Z,64.0
2022-10-11T15:50:09.940Z,64.0
2022-10-11T15:52:50.538Z,64.0
2022-10-11T15:55:21.122Z,64.0
2022-10-11T15:57:51.700Z,64.0
2022-10-11T16:00:22.516Z,65.0
2022-10-11T16:02:53.173Z,65.0
2022-10-11T16:05:33.798Z,65.0
2022-10-11T16:08:04.353Z,65.0
2022-10-11T16:10:34.933Z,65.0
2022-10-11T16:13:05.549Z,66.0
2022-10-11T16:15:36.148Z,66.0
2022-10-11T16:18:06.728Z,66.0
2022-10-11T16:20:47.326Z,66.0
2022-10-11T16:23:17.945Z,66.0
2022-10-11T16:25:48.519Z,66.0
2022-10-11T16:30:49.251Z,66.0
2022-10-11T16:33:19.815Z,66.0
2022-10-11T16:36:00.427Z,66.0
2022-10-11T16:38:31.042Z,66.0
2022-10-11T16:41:01.608Z,66.0
2022-10-11T16:43:32.225Z,66.0
2022-10-11T16:46:03.063Z,67.0
2022-10-11T16:48:33.873Z,66.0
2022-10-11T16:51:14.490Z,66.0
2022-10-11T16:53:45.101Z,67.0
2022-10-11T16:56:16.135Z,67.0
2022-10-11T16:58:46.751Z,67.0
2022-10-11T17:01:17.438Z,67.0
2022-10-11T17:03:48.087Z,67.0
2022-10-11T17:06:28.675Z,67.0
2022-10-11T17:11:39.414Z,67.0
2022-10-11T17:14:10.029Z,67.0
2022-10-11T17:16:40.616Z,67.0
2022-10-11T17:19:21.200Z,67.0
2022-10-11T17:21:51.789Z,67.0
2022-10-11T17:24:22.369Z,67.0
2022-10-11T17:26:52.974Z,67.0
2022-10-11T17:29:23.557Z,67.0
2022-10-11T17:31:59.184Z,67.0
2022-10-11T17:34:29.799Z,67.0
2022-10-11T17:37:00.391Z,67.0
2022-10-11T17:39:31.015Z,68.0
2022-10-11T17:42:01.608Z,68.0
2022-10-11T17:44:32.222Z,68.0
2022-10-11T17:47:02.819Z,68.0
2022-10-11T17:52:13.566Z,68.0
2022-10-11T17:54:44.147Z,68.0
2022-10-11T17:57:14.726Z,68.0
2022-10-11T17:59:45.340Z,68.0
2022-10-11T18:02:25.950Z,69.0
2022-10-11T18:04:56.541Z,69.0
2022-10-11T18:07:27.101Z,69.0
2022-10-11T18:09:57.696Z,69.0
2022-10-11T18:15:08.459Z,69.0
2022-10-11T18:17:49.123Z,69.0
2022-10-11T18:20:19.721Z,69.0
2022-10-11T18:22:50.306Z,69.0
2022-10-11T18:25:20.910Z,69.0
2022-10-11T18:27:51.516Z,69.0
2022-10-11T18:33:02.277Z,69.0
2022-10-11T18:35:32.880Z,69.0
2022-10-11T18:38:07.682Z,69.0
2022-10-11T18:40:28.257Z,69.0
2022-10-11T18:43:02.638Z,69.0
2022-10-11T18:45:33.233Z,69.0
2022-10-11T18:48:13.856Z,70.0
2022-10-11T18:50:44.470Z,70.0
2022-10-11T18:53:15.067Z,70.0
2022-10-11T18:55:45.693Z,70.0
2022-10-11T18:58:16.282Z,70.0
2022-10-11T19:00:57.091Z,70.0
2022-10-11T19:03:31.445Z,70.0
2022-10-11T19:05:54.754Z,70.0
2022-10-11T19:08:25.796Z,70.0
2022-10-11T19:13:26.561Z,70.0
2022-10-11T19:16:17.680Z,70.0
2022-10-11T19:18:41.801Z,70.0
2022-10-11T19:21:15.026Z,70.0
2022-10-11T19:23:45.588Z,70.0
2022-10-11T19:26:16.472Z,70.0
2022-10-11T19:28:47.218Z,70.0
2022-10-11T19:31:27.960Z,70.0
2022-10-11T19:33:58.555Z,70.0
2022-10-11T19:36:32.696Z,70.0
2022-10-11T19:38:56.129Z,70.0
2022-10-11T19:41:26.749Z,70.0
2022-10-11T19:43:57.352Z,70.0
2022-10-11T19:47:04.306Z,70.0
2022-10-11T19:49:15.594Z,70.0
2022-10-11T19:54:16.327Z,70.0
2022-10-11T19:56:46.908Z,70.0
2022-10-11T19:59:27.524Z,70.0
2022-10-11T20:02:02.403Z,70.0
2022-10-11T20:04:52.687Z,70.0
2022-10-11T20:06:53.567Z,70.0
2022-10-11T20:09:39.786Z,70.0
2022-10-11T20:12:00.363Z,70.0
2022-10-11T20:14:41.021Z,70.0
2022-10-11T20:17:11.637Z,70.0
2022-10-11T20:19:42.256Z,70.0
2022-10-11T20:22:12.838Z,70.0
2022-10-11T20:24:44.145Z,70.0
2022-10-11T20:27:14.753Z,70.0
2022-10-11T20:29:55.351Z,70.0
2022-10-11T20:34:56.099Z,70.0
2022-10-11T20:37:26.685Z,70.0
2022-10-11T20:39:57.291Z,70.0
2022-10-11T20:42:29.896Z,70.0
2022-10-11T20:45:10.652Z,70.0
2022-10-11T20:47:41.821Z,70.0
2022-10-11T20:50:12.405Z,70.0
2022-10-11T20:52:44.133Z,70.0
2022-10-11T20:55:14.708Z,70.0
2022-10-11T20:57:45.784Z,70.0
2022-10-11T21:02:56.568Z,70.0
2022-10-11T21:05:27.170Z,70.0
2022-10-11T21:07:57.755Z,70.0
2022-10-11T21:10:28.351Z,70.0
2022-10-11T21:15:39.107Z,70.0
2022-10-11T21:18:09.935Z,70.0
2022-10-11T21:20:40.515Z,70.0
2022-10-11T21:23:11.093Z,70.0
2022-10-11T21:25:41.702Z,70.0
2022-10-11T21:28:22.405Z,70.0
2022-10-11T21:30:53.140Z,70.0
2022-10-11T21:33:23.735Z,70.0
2022-10-11T21:35:54.292Z,70.0
2022-10-11T21:38:24.946Z,70.0
2022-10-11T21:40:55.549Z,70.0
2022-10-11T21:43:36.186Z,70.0
2022-10-11T21:46:06.771Z,70.0
2022-10-11T21:48:37.398Z,70.0
2022-10-11T21:51:08.095Z,70.0
2022-10-11T21:56:08.878Z,70.0
2022-10-11T21:58:49.488Z,70.0
2022-10-11T22:01:20.214Z,70.0
2022-10-11T22:03:50.956Z,70.0
2022-10-11T22:06:21.541Z,70.0
2022-10-11T22:08:52.127Z,70.0
2022-10-11T22:11:22.700Z,70.0
2022-10-11T22:14:03.320Z,70.0
2022-10-11T22:16:33.929Z,70.0
2022-10-11T22:19:04.519Z,70.0
2022-10-11T22:21:35.073Z,70.0
2022-10-11T22:24:05.972Z,70.0
2022-10-11T22:26:36.591Z,70.0
2022-10-11T22:29:17.212Z,70.0
2022-10-11T22:31:53.591Z,70.0
2022-10-11T22:36:54.340Z,70.0
2022-10-11T22:39:24.996Z,70.0
2022-10-11T22:42:05.595Z,70.0
2022-10-11T22:44:36.175Z,70.0
2022-10-11T22:47:06.752Z,70.0
2022-10-11T22:49:37.359Z,70.0
2022-10-11T22:52:07.957Z,70.0
2022-10-11T22:54:38.551Z,70.0
2022-10-11T22:57:19.126Z,70.0
2022-10-11T22:59:49.705Z,70.0
2022-10-11T23:02:20.287Z,70.0
2022-10-11T23:04:50.884Z,70.0
2022-10-11T23:07:21.466Z,70.0
2022-10-11T23:09:52.082Z,70.0
2022-10-11T23:12:32.664Z,70.0
2022-10-11T23:17:33.390Z,70.0
2022-10-11T23:20:03.988Z,71.0
2022-10-11T23:22:34.556Z,70.0
2022-10-11T23:25:05.147Z,71.0
2022-10-11T23:27:46.156Z,70.0
2022-10-11T23:32:46.915Z,71.0
2022-10-11T23:35:17.493Z,71.0
2022-10-11T23:37:48.541Z,71.0
2022-10-11T23:40:29.159Z,71.0
2022-10-11T23:42:59.752Z,71.0
2022-10-11T23:45:30.357Z,71.0
2022-10-11T23:48:00.937Z,71.0
2022-10-11T23:50:31.573Z,71.0
2022-10-11T23:53:02.177Z,71.0
2022-10-11T23:58:22.945Z,71.0
